Latest METARs, TAFs and NOTAMs for LFPB


---------------------------------------------------------------------------
	(OBSERVATIONS)
LFPB 210500Z AUTO VRB01KT 9999 FEW032 12/09 Q1014 NOSIG=
LFPB 210430Z AUTO 01003KT 340V040 CAVOK 12/09 Q1014 NOSIG=
LFPB 210330Z AUTO 02003KT 9999 FEW041 12/10 Q1014 NOSIG=
LFPB 210300Z AUTO VRB01KT 9999 BKN041 12/10 Q1014 NOSIG=
LFPB 210230Z AUTO VRB02KT 9999 SCT033 BKN041 12/10 Q1015 NOSIG=
---------------------------------------------------------------------------
	(FC)
Sorry, FC For LFPB Not Found
---------------------------------------------------------------------------
	(TERMINAL AREA FORECAST)
LFPB 202300Z 2100/2124 04006KT CAVOK PROB40
    TEMPO 2112/2119 SCT035TCU PROB30
    TEMPO 2112/2119 3000 TSRA SCT030CB=
---------------------------------------------------------------------------
	(NOTAMS)


LFPB A1434/18 APRON J EAST PART CLOSED. 28 MAR 11:42 2018 UNTIL
    30 JUN 23:59 2018. CREATED: 28 MAR 11:42 2018

LFPB A1578/18 TWY W19 CLOSED. 10 APR 09:47 2018 UNTIL 30 JUN
    23:59 2018. CREATED: 10 APR 09:47 2018

LFPB A1579/18 PARKING AREA I CLOSED. 10 APR 09:48 2018 UNTIL
    30 JUN 23:59 2018. CREATED: 10 APR 09:48 2018

LFPB A1891/18 'MEMORIAL DAY' CEREMONIES AT MARNE-LA-COQUETTE
    AND SURESNES - AIP SUP 085/18 : SUBJECT : AD RESTRICTIONS
    AND CREATION OF 5 TEMPORARY RESTRICTED AREAS. THIS AIP SUP
    IS AVBL ON WWW.SIA.AVIATION-CIVILE.GOUV.FR. 22-24 0830-0930,
    27 0800-1000 1130-1330, 22 MAY 08:30 2018 UNTIL 27 MAY 13:30
    2018. CREATED: 03 MAY 00:00 2018

LFPB A1996/18 TRIGGER NOTAM - PERM AIRAC AIP AMDT 07/18 WEF 21
    JUN 2018. RWY 07 09 21 : POGO PC 2J AND PC 2M ITINERARIES
    WITHDRAWN REF AD 2 LFPB SID RWY 07 09 21 CONV POGO EAST LFPO
    LFOB RWY 21 25 : POGO PC 2C AND PC 2F ITINERARIES WITHDRAWN
    REF AD 2 LFPB SID CONV POGO WEST LFPO LFOB. 21 JUN 00:00
    2018 UNTIL 04 JUL 23:59 2018. CREATED: 10 MAY 00:04 2018

LFPB A5447/17 HLDG PATTERNS LUKIP AND BIBAX, AMDT AIP AIRAC 01/18,
    PARTS AD 2 LFPG DATA STAR RWY08L-RNAV CODE 04 AD 2 LFPG DATA
    STAR RWY08R-RNAV CODE 04 AD 2 LFPG DATA STAR RWY09L-RNAV
    CODE 04 AD 2 LFPG DATA STAR RWY09R-RNAV CODE 04 AD 2 LFPG
    DATA STAR RWY26L-RNAV CODE 04 AD 2 LFPG DATA STAR RWY26R-RNAV
    CODE 04 AD 2 LFPG DATA STAR RWY27L-RNAV CODE 04 AD 2 LFPG
    DATA STAR RWY27R-RNAV CODE 04 : . HLDG PATTERN LUKIP : READ''DIRECTION
    MAG 096DEG-DIRECTION TRUE 096,4DEG'' INSTEAD OF ''DIRECTION
    MAG 141DEG-DIRECTION TRUE 141,4DEG'' . HLDG PATTERN BIBAX
    : READ ''DIRECTION MAG 141DEG-DIRECTION TRUE 141,4DEG'' INSTEAD
    OF ''DIRECTION MAG 096DEG -DIRECTION TRUE 096,4DEG ''. 04
    JAN 00:00 2018 UNTIL PERM. CREATED: 14 DEC 14:03 2017

LFPB A5524/17 REF AD2 LFPB STAR RWY07 RNAV MATIX MOPIL RENSA
    AD2 LFPB STAR RWY25-27 RNAV MATIX MOPIL RENSA CARTOUCHE HLDG
    XERAM READ LEFT IN PLACE OF RIGHT. 04 JAN 00:00 2018 UNTIL
    PERM. CREATED: 21 DEC 13:11 2017

LFPB A5526/17 REF AD2 LFPB STAR RWY07 RNAV PEXIR VELOL AD2 LFPB
    STAR RWY25-27 RNAV PEXIR VELOL CARTOUCHE HLDG LUKIPXERAM
    READ LEFT IN PLACE OF RIGHT. 04 JAN 00:00 2018 UNTIL PERM.
    CREATED: 21 DEC 13:16 2017

---------------------------------------------------------------------------